sensor_id;sensor_type;location;lat;lon;timestamp;P1;durP1;ratioP1;P2;durP2;ratioP2
37097;SDS011;63608;49.572;12.348;2023-12-20T00:00:46;7.97;;;4.47;;
37097;SDS011;63608;49.572;12.348;2023-12-20T00:02:57;8.00;;;5.00;;
37097;SDS011;63608;49.572;12.348;2023-12-20T00:05:12;8.60;;;4.83;;
37097;SDS011;63608;49.572;12.348;2023-12-20T00:07:24;10.13;;;5.07;;
37097;SDS011;63608;49.572;12.348;2023-12-20T00:09:31;7.77;;;4.70;;
37097;SDS011;63608;49.572;12.348;2023-12-20T00:11:50;7.87;;;4.63;;
37097;SDS011;63608;49.572;12.348;2023-12-20T00:14:04;6.00;;;4.33;;
37097;SDS011;63608;49.572;12.348;2023-12-20T00:16:18;8.73;;;5.20;;
37097;SDS011;63608;49.572;12.348;2023-12-20T00:18:33;7.90;;;4.53;;
37097;SDS011;63608;49.572;12.348;2023-12-20T00:20:49;6.17;;;4.33;;
37097;SDS011;63608;49.572;12.348;2023-12-20T00:23:01;7.20;;;4.50;;
37097;SDS011;63608;49.572;12.348;2023-12-20T00:25:13;5.60;;;4.50;;
37097;SDS011;63608;49.572;12.348;2023-12-20T00:27:24;8.63;;;4.43;;
37097;SDS011;63608;49.572;12.348;2023-12-20T00:29:36;7.30;;;4.60;;
37097;SDS011;63608;49.572;12.348;2023-12-20T00:31:56;9.40;;;4.60;;
37097;SDS011;63608;49.572;12.348;2023-12-20T00:34:07;5.87;;;4.10;;
37097;SDS011;63608;49.572;12.348;2023-12-20T00:36:22;10.27;;;5.17;;
37097;SDS011;63608;49.572;12.348;2023-12-20T00:38:34;10.37;;;5.30;;
37097;SDS011;63608;49.572;12.348;2023-12-20T00:40:50;10.40;;;5.23;;
37097;SDS011;63608;49.572;12.348;2023-12-20T00:43:05;10.07;;;5.17;;
37097;SDS011;63608;49.572;12.348;2023-12-20T00:45:23;9.43;;;4.43;;
37097;SDS011;63608;49.572;12.348;2023-12-20T00:47:38;14.07;;;5.10;;
37097;SDS011;63608;49.572;12.348;2023-12-20T00:49:49;7.43;;;4.10;;
37097;SDS011;63608;49.572;12.348;2023-12-20T00:52:00;12.00;;;5.67;;
37097;SDS011;63608;49.572;12.348;2023-12-20T00:54:07;9.00;;;5.57;;
37097;SDS011;63608;49.572;12.348;2023-12-20T00:56:22;9.30;;;5.77;;
37097;SDS011;63608;49.572;12.348;2023-12-20T00:58:37;7.27;;;5.17;;
37097;SDS011;63608;49.572;12.348;2023-12-20T01:00:54;10.27;;;5.00;;
37097;SDS011;63608;49.572;12.348;2023-12-20T01:03:09;7.77;;;5.03;;
37097;SDS011;63608;49.572;12.348;2023-12-20T01:05:21;7.80;;;5.40;;
37097;SDS011;63608;49.572;12.348;2023-12-20T01:07:37;6.97;;;4.63;;
37097;SDS011;63608;49.572;12.348;2023-12-20T01:09:46;8.03;;;4.90;;
37097;SDS011;63608;49.572;12.348;2023-12-20T01:11:56;8.67;;;4.90;;
37097;SDS011;63608;49.572;12.348;2023-12-20T01:14:03;7.60;;;4.97;;
37097;SDS011;63608;49.572;12.348;2023-12-20T01:16:14;5.40;;;4.90;;
37097;SDS011;63608;49.572;12.348;2023-12-20T01:18:32;8.27;;;5.50;;
37097;SDS011;63608;49.572;12.348;2023-12-20T01:20:43;7.23;;;5.13;;
37097;SDS011;63608;49.572;12.348;2023-12-20T01:22:55;6.97;;;5.17;;
37097;SDS011;63608;49.572;12.348;2023-12-20T01:25:12;8.60;;;5.43;;
37097;SDS011;63608;49.572;12.348;2023-12-20T01:27:27;7.73;;;5.60;;
37097;SDS011;63608;49.572;12.348;2023-12-20T01:29:43;9.03;;;5.47;;
37097;SDS011;63608;49.572;12.348;2023-12-20T01:31:56;12.30;;;5.80;;
37097;SDS011;63608;49.572;12.348;2023-12-20T01:34:15;9.70;;;5.30;;
37097;SDS011;63608;49.572;12.348;2023-12-20T01:36:26;9.83;;;5.43;;
37097;SDS011;63608;49.572;12.348;2023-12-20T01:38:36;6.67;;;4.70;;
37097;SDS011;63608;49.572;12.348;2023-12-20T01:40:50;7.43;;;4.60;;
37097;SDS011;63608;49.572;12.348;2023-12-20T01:43:07;8.63;;;5.70;;
37097;SDS011;63608;49.572;12.348;2023-12-20T01:45:18;5.77;;;4.67;;
37097;SDS011;63608;49.572;12.348;2023-12-20T01:47:35;9.17;;;5.77;;
37097;SDS011;63608;49.572;12.348;2023-12-20T01:49:54;6.83;;;4.70;;
37097;SDS011;63608;49.572;12.348;2023-12-20T01:52:05;8.20;;;5.20;;
37097;SDS011;63608;49.572;12.348;2023-12-20T01:54:16;7.60;;;4.70;;
37097;SDS011;63608;49.572;12.348;2023-12-20T01:56:26;8.50;;;4.83;;
37097;SDS011;63608;49.572;12.348;2023-12-20T01:58:36;10.17;;;5.07;;
37097;SDS011;63608;49.572;12.348;2023-12-20T02:00:49;8.33;;;4.63;;
37097;SDS011;63608;49.572;12.348;2023-12-20T02:03:05;7.53;;;4.80;;
37097;SDS011;63608;49.572;12.348;2023-12-20T02:05:29;7.40;;;4.77;;
37097;SDS011;63608;49.572;12.348;2023-12-20T02:07:47;9.70;;;5.10;;
37097;SDS011;63608;49.572;12.348;2023-12-20T02:09:57;6.03;;;4.40;;
37097;SDS011;63608;49.572;12.348;2023-12-20T02:12:14;7.00;;;4.30;;
37097;SDS011;63608;49.572;12.348;2023-12-20T02:14:28;4.67;;;3.97;;
37097;SDS011;63608;49.572;12.348;2023-12-20T02:16:42;5.70;;;3.77;;
37097;SDS011;63608;49.572;12.348;2023-12-20T02:18:59;7.07;;;4.80;;
37097;SDS011;63608;49.572;12.348;2023-12-20T02:21:17;6.23;;;4.10;;
37097;SDS011;63608;49.572;12.348;2023-12-20T02:23:36;4.73;;;3.87;;
37097;SDS011;63608;49.572;12.348;2023-12-20T02:25:46;5.50;;;3.70;;
37097;SDS011;63608;49.572;12.348;2023-12-20T02:28:02;4.90;;;4.00;;
37097;SDS011;63608;49.572;12.348;2023-12-20T02:30:13;5.30;;;4.40;;
37097;SDS011;63608;49.572;12.348;2023-12-20T02:32:22;5.93;;;3.93;;
37097;SDS011;63608;49.572;12.348;2023-12-20T02:34:33;8.00;;;4.07;;
37097;SDS011;63608;49.572;12.348;2023-12-20T02:36:49;7.27;;;4.00;;
37097;SDS011;63608;49.572;12.348;2023-12-20T02:39:07;8.60;;;4.13;;
37097;SDS011;63608;49.572;12.348;2023-12-20T02:41:18;5.03;;;3.63;;
37097;SDS011;63608;49.572;12.348;2023-12-20T02:43:27;4.40;;;3.30;;
37097;SDS011;63608;49.572;12.348;2023-12-20T02:45:44;4.10;;;3.60;;
37097;SDS011;63608;49.572;12.348;2023-12-20T02:47:55;5.10;;;3.77;;
37097;SDS011;63608;49.572;12.348;2023-12-20T02:50:07;4.77;;;3.60;;
37097;SDS011;63608;49.572;12.348;2023-12-20T02:52:19;5.60;;;3.30;;
37097;SDS011;63608;49.572;12.348;2023-12-20T02:54:30;4.07;;;3.37;;
37097;SDS011;63608;49.572;12.348;2023-12-20T02:56:38;3.00;;;2.70;;
37097;SDS011;63608;49.572;12.348;2023-12-20T02:58:50;5.03;;;3.33;;
37097;SDS011;63608;49.572;12.348;2023-12-20T03:01:03;4.20;;;3.33;;
37097;SDS011;63608;49.572;12.348;2023-12-20T03:03:19;5.50;;;3.97;;
37097;SDS011;63608;49.572;12.348;2023-12-20T03:05:38;4.53;;;3.33;;
37097;SDS011;63608;49.572;12.348;2023-12-20T03:07:48;5.17;;;3.23;;
37097;SDS011;63608;49.572;12.348;2023-12-20T03:10:05;3.23;;;2.83;;
37097;SDS011;63608;49.572;12.348;2023-12-20T03:12:13;5.70;;;3.73;;
37097;SDS011;63608;49.572;12.348;2023-12-20T03:14:23;3.17;;;2.87;;
37097;SDS011;63608;49.572;12.348;2023-12-20T03:16:37;2.83;;;2.60;;
37097;SDS011;63608;49.572;12.348;2023-12-20T03:18:52;6.33;;;3.53;;
37097;SDS011;63608;49.572;12.348;2023-12-20T03:20:59;3.97;;;3.33;;
37097;SDS011;63608;49.572;12.348;2023-12-20T03:23:09;4.60;;;3.37;;
37097;SDS011;63608;49.572;12.348;2023-12-20T03:25:25;4.07;;;3.13;;
37097;SDS011;63608;49.572;12.348;2023-12-20T03:27:41;4.67;;;3.20;;
37097;SDS011;63608;49.572;12.348;2023-12-20T03:29:55;3.77;;;2.70;;
37097;SDS011;63608;49.572;12.348;2023-12-20T03:32:10;4.43;;;2.90;;
37097;SDS011;63608;49.572;12.348;2023-12-20T03:34:27;3.77;;;2.80;;
37097;SDS011;63608;49.572;12.348;2023-12-20T03:36:45;4.37;;;3.50;;
37097;SDS011;63608;49.572;12.348;2023-12-20T03:38:53;6.43;;;3.50;;
37097;SDS011;63608;49.572;12.348;2023-12-20T03:41:04;10.70;;;3.53;;
37097;SDS011;63608;49.572;12.348;2023-12-20T03:43:14;6.70;;;3.47;;
37097;SDS011;63608;49.572;12.348;2023-12-20T03:45:29;3.63;;;3.00;;
37097;SDS011;63608;49.572;12.348;2023-12-20T03:47:44;2.73;;;2.50;;
37097;SDS011;63608;49.572;12.348;2023-12-20T03:49:57;2.67;;;2.47;;
37097;SDS011;63608;49.572;12.348;2023-12-20T03:52:08;5.60;;;2.77;;
37097;SDS011;63608;49.572;12.348;2023-12-20T03:54:17;2.00;;;1.80;;
37097;SDS011;63608;49.572;12.348;2023-12-20T03:56:36;2.30;;;2.07;;
37097;SDS011;63608;49.572;12.348;2023-12-20T03:58:48;1.90;;;1.80;;
37097;SDS011;63608;49.572;12.348;2023-12-20T04:00:55;2.03;;;1.80;;
37097;SDS011;63608;49.572;12.348;2023-12-20T04:03:09;1.50;;;1.40;;
37097;SDS011;63608;49.572;12.348;2023-12-20T04:05:15;1.40;;;1.30;;
37097;SDS011;63608;49.572;12.348;2023-12-20T04:07:24;1.50;;;1.40;;
37097;SDS011;63608;49.572;12.348;2023-12-20T04:09:33;1.27;;;1.20;;
37097;SDS011;63608;49.572;12.348;2023-12-20T04:11:52;1.07;;;1.07;;
37097;SDS011;63608;49.572;12.348;2023-12-20T04:13:57;0.70;;;0.70;;
37097;SDS011;63608;49.572;12.348;2023-12-20T04:16:12;0.90;;;0.90;;
37097;SDS011;63608;49.572;12.348;2023-12-20T04:18:30;0.70;;;0.70;;
37097;SDS011;63608;49.572;12.348;2023-12-20T04:20:41;0.73;;;0.73;;
37097;SDS011;63608;49.572;12.348;2023-12-20T04:22:50;0.80;;;0.80;;
37097;SDS011;63608;49.572;12.348;2023-12-20T04:25:06;0.90;;;0.80;;
37097;SDS011;63608;49.572;12.348;2023-12-20T04:27:21;0.80;;;0.80;;
37097;SDS011;63608;49.572;12.348;2023-12-20T04:29:26;0.93;;;0.83;;
37097;SDS011;63608;49.572;12.348;2023-12-20T04:31:35;0.80;;;0.70;;
37097;SDS011;63608;49.572;12.348;2023-12-20T04:33:50;0.80;;;0.77;;
37097;SDS011;63608;49.572;12.348;2023-12-20T04:36:05;0.60;;;0.60;;
37097;SDS011;63608;49.572;12.348;2023-12-20T04:38:14;0.63;;;0.63;;
37097;SDS011;63608;49.572;12.348;2023-12-20T04:40:23;0.60;;;0.60;;
37097;SDS011;63608;49.572;12.348;2023-12-20T04:42:46;0.90;;;0.90;;
37097;SDS011;63608;49.572;12.348;2023-12-20T04:44:58;1.00;;;0.73;;
37097;SDS011;63608;49.572;12.348;2023-12-20T04:47:15;0.70;;;0.70;;
37097;SDS011;63608;49.572;12.348;2023-12-20T04:49:30;0.60;;;0.60;;
37097;SDS011;63608;49.572;12.348;2023-12-20T04:51:49;0.70;;;0.70;;
37097;SDS011;63608;49.572;12.348;2023-12-20T04:54:05;1.10;;;1.00;;
37097;SDS011;63608;49.572;12.348;2023-12-20T04:56:21;0.70;;;0.70;;
37097;SDS011;63608;49.572;12.348;2023-12-20T04:58:32;0.70;;;0.70;;
37097;SDS011;63608;49.572;12.348;2023-12-20T05:00:44;0.87;;;0.80;;
37097;SDS011;63608;49.572;12.348;2023-12-20T05:02:58;0.70;;;0.70;;
37097;SDS011;63608;49.572;12.348;2023-12-20T05:05:14;0.90;;;0.90;;
37097;SDS011;63608;49.572;12.348;2023-12-20T05:07:21;0.70;;;0.70;;
37097;SDS011;63608;49.572;12.348;2023-12-20T05:09:41;0.80;;;0.80;;
37097;SDS011;63608;49.572;12.348;2023-12-20T05:11:54;0.63;;;0.63;;
37097;SDS011;63608;49.572;12.348;2023-12-20T05:14:08;0.70;;;0.70;;
37097;SDS011;63608;49.572;12.348;2023-12-20T05:16:23;0.70;;;0.70;;
37097;SDS011;63608;49.572;12.348;2023-12-20T05:18:36;0.57;;;0.57;;
37097;SDS011;63608;49.572;12.348;2023-12-20T05:20:50;0.70;;;0.70;;
37097;SDS011;63608;49.572;12.348;2023-12-20T05:23:09;0.70;;;0.70;;
37097;SDS011;63608;49.572;12.348;2023-12-20T05:25:22;0.90;;;0.90;;
37097;SDS011;63608;49.572;12.348;2023-12-20T05:27:40;0.80;;;0.80;;
37097;SDS011;63608;49.572;12.348;2023-12-20T05:29:58;0.60;;;0.60;;
37097;SDS011;63608;49.572;12.348;2023-12-20T05:32:09;3.50;;;2.90;;
37097;SDS011;63608;49.572;12.348;2023-12-20T05:34:26;4.47;;;4.07;;
37097;SDS011;63608;49.572;12.348;2023-12-20T05:36:41;2.27;;;1.40;;
37097;SDS011;63608;49.572;12.348;2023-12-20T05:38:58;1.23;;;1.23;;
37097;SDS011;63608;49.572;12.348;2023-12-20T05:41:14;0.90;;;0.90;;
37097;SDS011;63608;49.572;12.348;2023-12-20T05:43:26;0.87;;;0.87;;
37097;SDS011;63608;49.572;12.348;2023-12-20T05:45:45;0.90;;;0.90;;
37097;SDS011;63608;49.572;12.348;2023-12-20T05:47:56;0.90;;;0.90;;
37097;SDS011;63608;49.572;12.348;2023-12-20T05:50:11;0.80;;;0.80;;
37097;SDS011;63608;49.572;12.348;2023-12-20T05:52:23;0.90;;;0.90;;
37097;SDS011;63608;49.572;12.348;2023-12-20T05:54:36;1.00;;;1.00;;
37097;SDS011;63608;49.572;12.348;2023-12-20T05:56:49;0.70;;;0.70;;
37097;SDS011;63608;49.572;12.348;2023-12-20T05:58:55;0.80;;;0.80;;
37097;SDS011;63608;49.572;12.348;2023-12-20T06:01:12;0.90;;;0.90;;
37097;SDS011;63608;49.572;12.348;2023-12-20T06:03:25;1.30;;;1.20;;
37097;SDS011;63608;49.572;12.348;2023-12-20T06:05:38;0.97;;;0.97;;
37097;SDS011;63608;49.572;12.348;2023-12-20T06:07:50;1.97;;;1.87;;
37097;SDS011;63608;49.572;12.348;2023-12-20T06:10:04;1.07;;;1.07;;
37097;SDS011;63608;49.572;12.348;2023-12-20T06:12:14;0.97;;;0.97;;
37097;SDS011;63608;49.572;12.348;2023-12-20T06:14:29;0.80;;;0.80;;
37097;SDS011;63608;49.572;12.348;2023-12-20T06:16:47;2.00;;;1.00;;
37097;SDS011;63608;49.572;12.348;2023-12-20T06:18:58;1.00;;;1.00;;
37097;SDS011;63608;49.572;12.348;2023-12-20T06:21:16;1.00;;;1.00;;
37097;SDS011;63608;49.572;12.348;2023-12-20T06:23:29;1.03;;;1.00;;
37097;SDS011;63608;49.572;12.348;2023-12-20T06:25:40;0.90;;;0.90;;
37097;SDS011;63608;49.572;12.348;2023-12-20T06:27:52;1.00;;;1.00;;
37097;SDS011;63608;49.572;12.348;2023-12-20T06:29:59;1.10;;;1.10;;
37097;SDS011;63608;49.572;12.348;2023-12-20T06:32:10;1.13;;;1.13;;
37097;SDS011;63608;49.572;12.348;2023-12-20T06:34:22;0.97;;;0.97;;
37097;SDS011;63608;49.572;12.348;2023-12-20T06:36:29;0.90;;;0.90;;
37097;SDS011;63608;49.572;12.348;2023-12-20T06:38:39;1.00;;;1.00;;
37097;SDS011;63608;49.572;12.348;2023-12-20T06:40:54;1.03;;;1.00;;
37097;SDS011;63608;49.572;12.348;2023-12-20T06:43:05;1.20;;;1.13;;
37097;SDS011;63608;49.572;12.348;2023-12-20T06:45:13;1.17;;;1.17;;
37097;SDS011;63608;49.572;12.348;2023-12-20T06:47:32;1.50;;;1.50;;
37097;SDS011;63608;49.572;12.348;2023-12-20T06:49:44;1.90;;;1.40;;
37097;SDS011;63608;49.572;12.348;2023-12-20T06:51:56;1.67;;;1.60;;
37097;SDS011;63608;49.572;12.348;2023-12-20T06:54:13;1.50;;;1.40;;
37097;SDS011;63608;49.572;12.348;2023-12-20T06:56:30;1.37;;;1.27;;
37097;SDS011;63608;49.572;12.348;2023-12-20T06:58:43;1.30;;;1.30;;
37097;SDS011;63608;49.572;12.348;2023-12-20T07:00:57;1.40;;;1.30;;
37097;SDS011;63608;49.572;12.348;2023-12-20T07:03:13;1.10;;;1.10;;
37097;SDS011;63608;49.572;12.348;2023-12-20T07:05:29;1.13;;;1.13;;
37097;SDS011;63608;49.572;12.348;2023-12-20T07:07:42;3.90;;;1.20;;
37097;SDS011;63608;49.572;12.348;2023-12-20T07:09:55;1.23;;;1.13;;
37097;SDS011;63608;49.572;12.348;2023-12-20T07:12:12;1.43;;;1.37;;
37097;SDS011;63608;49.572;12.348;2023-12-20T07:14:30;1.43;;;1.33;;
37097;SDS011;63608;49.572;12.348;2023-12-20T07:16:48;1.30;;;1.30;;
37097;SDS011;63608;49.572;12.348;2023-12-20T07:19:02;1.40;;;1.40;;
37097;SDS011;63608;49.572;12.348;2023-12-20T07:21:19;1.10;;;1.10;;
37097;SDS011;63608;49.572;12.348;2023-12-20T07:23:33;1.20;;;1.20;;
37097;SDS011;63608;49.572;12.348;2023-12-20T07:25:44;1.47;;;1.37;;
37097;SDS011;63608;49.572;12.348;2023-12-20T07:28:00;1.20;;;1.10;;
37097;SDS011;63608;49.572;12.348;2023-12-20T07:30:14;1.00;;;1.00;;
37097;SDS011;63608;49.572;12.348;2023-12-20T07:32:30;1.30;;;1.20;;
37097;SDS011;63608;49.572;12.348;2023-12-20T07:34:45;1.00;;;1.00;;
37097;SDS011;63608;49.572;12.348;2023-12-20T07:37:02;1.10;;;1.00;;
37097;SDS011;63608;49.572;12.348;2023-12-20T07:39:16;1.03;;;1.03;;
37097;SDS011;63608;49.572;12.348;2023-12-20T07:41:33;0.90;;;0.90;;
37097;SDS011;63608;49.572;12.348;2023-12-20T07:43:45;1.13;;;1.13;;
37097;SDS011;63608;49.572;12.348;2023-12-20T07:46:01;1.30;;;1.30;;
37097;SDS011;63608;49.572;12.348;2023-12-20T07:48:20;1.10;;;1.10;;
37097;SDS011;63608;49.572;12.348;2023-12-20T07:50:38;1.07;;;1.00;;
37097;SDS011;63608;49.572;12.348;2023-12-20T07:52:55;1.40;;;1.40;;
37097;SDS011;63608;49.572;12.348;2023-12-20T07:55:10;1.53;;;0.97;;
37097;SDS011;63608;49.572;12.348;2023-12-20T07:57:24;1.40;;;1.23;;
37097;SDS011;63608;49.572;12.348;2023-12-20T07:59:40;1.20;;;1.10;;
37097;SDS011;63608;49.572;12.348;2023-12-20T08:01:54;1.57;;;1.30;;
37097;SDS011;63608;49.572;12.348;2023-12-20T08:04:11;1.70;;;1.53;;
37097;SDS011;63608;49.572;12.348;2023-12-20T08:06:29;1.70;;;1.60;;
37097;SDS011;63608;49.572;12.348;2023-12-20T08:08:47;1.30;;;1.30;;
37097;SDS011;63608;49.572;12.348;2023-12-20T08:11:04;1.53;;;1.53;;
37097;SDS011;63608;49.572;12.348;2023-12-20T08:13:16;1.97;;;1.87;;
37097;SDS011;63608;49.572;12.348;2023-12-20T08:15:30;1.80;;;1.70;;
37097;SDS011;63608;49.572;12.348;2023-12-20T08:17:43;1.67;;;1.57;;
37097;SDS011;63608;49.572;12.348;2023-12-20T08:19:57;1.70;;;1.60;;
37097;SDS011;63608;49.572;12.348;2023-12-20T08:22:12;2.40;;;2.10;;
37097;SDS011;63608;49.572;12.348;2023-12-20T08:24:26;2.30;;;2.03;;
37097;SDS011;63608;49.572;12.348;2023-12-20T08:26:39;1.87;;;1.77;;
37097;SDS011;63608;49.572;12.348;2023-12-20T08:28:53;2.10;;;2.00;;
37097;SDS011;63608;49.572;12.348;2023-12-20T08:31:05;2.60;;;2.23;;
37097;SDS011;63608;49.572;12.348;2023-12-20T08:33:18;2.60;;;2.00;;
37097;SDS011;63608;49.572;12.348;2023-12-20T08:35:35;5.40;;;2.50;;
37097;SDS011;63608;49.572;12.348;2023-12-20T08:37:50;1.93;;;1.83;;
37097;SDS011;63608;49.572;12.348;2023-12-20T08:40:07;2.63;;;2.43;;
37097;SDS011;63608;49.572;12.348;2023-12-20T08:42:22;2.40;;;2.20;;
37097;SDS011;63608;49.572;12.348;2023-12-20T08:44:36;2.50;;;2.30;;
37097;SDS011;63608;49.572;12.348;2023-12-20T08:46:50;2.53;;;2.33;;
37097;SDS011;63608;49.572;12.348;2023-12-20T08:49:08;2.50;;;2.30;;
37097;SDS011;63608;49.572;12.348;2023-12-20T08:51:22;2.17;;;1.87;;
37097;SDS011;63608;49.572;12.348;2023-12-20T08:53:39;2.07;;;1.83;;
37097;SDS011;63608;49.572;12.348;2023-12-20T08:55:56;2.33;;;2.13;;
37097;SDS011;63608;49.572;12.348;2023-12-20T08:58:07;2.33;;;2.10;;
37097;SDS011;63608;49.572;12.348;2023-12-20T09:00:21;3.00;;;1.90;;
37097;SDS011;63608;49.572;12.348;2023-12-20T09:02:35;2.53;;;2.03;;
37097;SDS011;63608;49.572;12.348;2023-12-20T09:04:49;1.83;;;1.70;;
37097;SDS011;63608;49.572;12.348;2023-12-20T09:07:03;2.27;;;2.17;;
37097;SDS011;63608;49.572;12.348;2023-12-20T09:09:18;1.93;;;1.83;;
37097;SDS011;63608;49.572;12.348;2023-12-20T09:11:36;2.37;;;2.27;;
37097;SDS011;63608;49.572;12.348;2023-12-20T09:13:51;3.10;;;2.73;;
37097;SDS011;63608;49.572;12.348;2023-12-20T09:16:03;6.97;;;4.20;;
37097;SDS011;63608;49.572;12.348;2023-12-20T09:18:12;2.17;;;2.03;;
37097;SDS011;63608;49.572;12.348;2023-12-20T09:20:29;3.20;;;2.77;;
37097;SDS011;63608;49.572;12.348;2023-12-20T09:22:44;1.90;;;1.80;;
37097;SDS011;63608;49.572;12.348;2023-12-20T09:24:58;3.17;;;2.87;;
37097;SDS011;63608;49.572;12.348;2023-12-20T09:27:10;2.93;;;2.73;;
37097;SDS011;63608;49.572;12.348;2023-12-20T09:29:23;2.60;;;2.47;;
37097;SDS011;63608;49.572;12.348;2023-12-20T09:31:36;2.87;;;2.10;;
37097;SDS011;63608;49.572;12.348;2023-12-20T09:33:43;3.83;;;2.33;;
37097;SDS011;63608;49.572;12.348;2023-12-20T09:35:56;3.33;;;2.40;;
37097;SDS011;63608;49.572;12.348;2023-12-20T09:38:12;2.10;;;2.00;;
37097;SDS011;63608;49.572;12.348;2023-12-20T09:40:23;3.30;;;2.30;;
37097;SDS011;63608;49.572;12.348;2023-12-20T09:42:36;2.20;;;2.00;;
37097;SDS011;63608;49.572;12.348;2023-12-20T09:44:52;2.50;;;2.30;;
37097;SDS011;63608;49.572;12.348;2023-12-20T09:47:01;4.93;;;2.40;;
37097;SDS011;63608;49.572;12.348;2023-12-20T09:49:15;2.33;;;2.20;;
37097;SDS011;63608;49.572;12.348;2023-12-20T09:51:32;3.50;;;2.87;;
37097;SDS011;63608;49.572;12.348;2023-12-20T09:53:47;3.10;;;2.23;;
37097;SDS011;63608;49.572;12.348;2023-12-20T09:56:04;2.73;;;2.40;;
37097;SDS011;63608;49.572;12.348;2023-12-20T09:58:22;2.20;;;2.10;;
37097;SDS011;63608;49.572;12.348;2023-12-20T10:00:33;2.63;;;2.43;;
37097;SDS011;63608;49.572;12.348;2023-12-20T10:02:52;2.20;;;2.10;;
37097;SDS011;63608;49.572;12.348;2023-12-20T10:05:10;2.20;;;1.93;;
37097;SDS011;63608;49.572;12.348;2023-12-20T10:07:32;2.40;;;2.20;;
37097;SDS011;63608;49.572;12.348;2023-12-20T10:09:47;1.70;;;1.60;;
37097;SDS011;63608;49.572;12.348;2023-12-20T10:12:05;2.77;;;2.40;;
37097;SDS011;63608;49.572;12.348;2023-12-20T10:14:19;2.17;;;2.07;;
37097;SDS011;63608;49.572;12.348;2023-12-20T10:16:39;2.37;;;2.10;;
37097;SDS011;63608;49.572;12.348;2023-12-20T10:18:58;2.40;;;2.30;;
37097;SDS011;63608;49.572;12.348;2023-12-20T10:21:11;2.80;;;2.53;;
37097;SDS011;63608;49.572;12.348;2023-12-20T10:23:24;2.00;;;1.90;;
37097;SDS011;63608;49.572;12.348;2023-12-20T10:25:37;1.83;;;1.73;;
37097;SDS011;63608;49.572;12.348;2023-12-20T10:28:08;2.40;;;2.20;;
37097;SDS011;63608;49.572;12.348;2023-12-20T10:30:30;2.70;;;1.90;;
37097;SDS011;63608;49.572;12.348;2023-12-20T10:32:43;2.40;;;2.20;;
37097;SDS011;63608;49.572;12.348;2023-12-20T10:34:57;2.27;;;2.10;;
37097;SDS011;63608;49.572;12.348;2023-12-20T10:37:11;2.50;;;1.73;;
37097;SDS011;63608;49.572;12.348;2023-12-20T10:39:24;1.43;;;1.33;;
37097;SDS011;63608;49.572;12.348;2023-12-20T10:41:38;5.60;;;2.03;;
37097;SDS011;63608;49.572;12.348;2023-12-20T10:43:54;1.80;;;1.70;;
37097;SDS011;63608;49.572;12.348;2023-12-20T10:46:12;1.73;;;1.63;;
37097;SDS011;63608;49.572;12.348;2023-12-20T10:48:31;3.30;;;1.73;;
37097;SDS011;63608;49.572;12.348;2023-12-20T10:50:49;2.23;;;1.97;;
37097;SDS011;63608;49.572;12.348;2023-12-20T10:53:07;1.93;;;1.83;;
37097;SDS011;63608;49.572;12.348;2023-12-20T10:55:21;1.50;;;1.40;;
37097;SDS011;63608;49.572;12.348;2023-12-20T10:57:38;2.10;;;1.97;;
37097;SDS011;63608;49.572;12.348;2023-12-20T10:59:56;1.80;;;1.70;;
37097;SDS011;63608;49.572;12.348;2023-12-20T11:02:18;1.83;;;1.73;;
37097;SDS011;63608;49.572;12.348;2023-12-20T11:04:34;1.90;;;1.60;;
37097;SDS011;63608;49.572;12.348;2023-12-20T11:06:58;1.77;;;1.67;;
37097;SDS011;63608;49.572;12.348;2023-12-20T11:09:19;1.70;;;1.60;;
37097;SDS011;63608;49.572;12.348;2023-12-20T11:11:34;1.90;;;1.40;;
37097;SDS011;63608;49.572;12.348;2023-12-20T11:13:43;1.50;;;1.50;;
37097;SDS011;63608;49.572;12.348;2023-12-20T11:16:06;1.50;;;1.40;;
37097;SDS011;63608;49.572;12.348;2023-12-20T11:18:18;1.20;;;1.20;;
37097;SDS011;63608;49.572;12.348;2023-12-20T11:20:39;1.30;;;1.20;;
37097;SDS011;63608;49.572;12.348;2023-12-20T11:22:53;2.13;;;1.20;;
37097;SDS011;63608;49.572;12.348;2023-12-20T11:25:08;1.80;;;1.40;;
37097;SDS011;63608;49.572;12.348;2023-12-20T11:27:22;1.57;;;1.40;;
37097;SDS011;63608;49.572;12.348;2023-12-20T11:29:36;1.20;;;1.20;;
37097;SDS011;63608;49.572;12.348;2023-12-20T11:31:47;1.53;;;1.43;;
37097;SDS011;63608;49.572;12.348;2023-12-20T11:34:03;3.20;;;2.60;;
37097;SDS011;63608;49.572;12.348;2023-12-20T11:36:23;2.40;;;2.20;;
37097;SDS011;63608;49.572;12.348;2023-12-20T11:40:48;3.03;;;1.53;;
37097;SDS011;63608;49.572;12.348;2023-12-20T11:42:59;4.10;;;1.57;;
37097;SDS011;63608;49.572;12.348;2023-12-20T11:45:05;1.80;;;1.70;;
37097;SDS011;63608;49.572;12.348;2023-12-20T11:47:23;1.40;;;1.23;;
37097;SDS011;63608;49.572;12.348;2023-12-20T11:49:35;2.50;;;1.67;;
37097;SDS011;63608;49.572;12.348;2023-12-20T11:51:49;3.83;;;1.37;;
37097;SDS011;63608;49.572;12.348;2023-12-20T11:54:05;2.30;;;1.23;;
37097;SDS011;63608;49.572;12.348;2023-12-20T11:56:25;1.87;;;1.63;;
37097;SDS011;63608;49.572;12.348;2023-12-20T11:58:40;1.80;;;1.50;;
37097;SDS011;63608;49.572;12.348;2023-12-20T12:00:55;1.53;;;1.43;;
37097;SDS011;63608;49.572;12.348;2023-12-20T12:03:14;1.70;;;1.60;;
37097;SDS011;63608;49.572;12.348;2023-12-20T12:05:26;1.40;;;1.30;;
37097;SDS011;63608;49.572;12.348;2023-12-20T12:07:37;2.30;;;1.80;;
37097;SDS011;63608;49.572;12.348;2023-12-20T12:10:00;1.30;;;1.30;;
37097;SDS011;63608;49.572;12.348;2023-12-20T12:12:14;1.30;;;1.20;;
37097;SDS011;63608;49.572;12.348;2023-12-20T12:14:32;2.00;;;1.60;;
37097;SDS011;63608;49.572;12.348;2023-12-20T12:16:45;1.40;;;1.30;;
37097;SDS011;63608;49.572;12.348;2023-12-20T12:19:04;1.67;;;1.50;;
37097;SDS011;63608;49.572;12.348;2023-12-20T12:21:20;1.30;;;1.20;;
37097;SDS011;63608;49.572;12.348;2023-12-20T12:23:31;4.00;;;1.63;;
37097;SDS011;63608;49.572;12.348;2023-12-20T12:25:43;1.67;;;1.57;;
37097;SDS011;63608;49.572;12.348;2023-12-20T12:27:55;1.43;;;1.33;;
37097;SDS011;63608;49.572;12.348;2023-12-20T12:30:05;1.50;;;1.40;;
37097;SDS011;63608;49.572;12.348;2023-12-20T12:32:15;1.60;;;1.53;;
37097;SDS011;63608;49.572;12.348;2023-12-20T12:34:26;3.53;;;1.60;;
37097;SDS011;63608;49.572;12.348;2023-12-20T12:36:36;1.43;;;1.33;;
37097;SDS011;63608;49.572;12.348;2023-12-20T12:38:42;3.27;;;1.70;;
37097;SDS011;63608;49.572;12.348;2023-12-20T12:40:55;2.40;;;1.40;;
37097;SDS011;63608;49.572;12.348;2023-12-20T12:43:06;1.47;;;1.37;;
37097;SDS011;63608;49.572;12.348;2023-12-20T12:45:20;1.70;;;1.50;;
37097;SDS011;63608;49.572;12.348;2023-12-20T12:47:38;4.33;;;1.60;;
37097;SDS011;63608;49.572;12.348;2023-12-20T12:49:54;2.00;;;1.40;;
37097;SDS011;63608;49.572;12.348;2023-12-20T12:52:05;2.80;;;1.33;;
37097;SDS011;63608;49.572;12.348;2023-12-20T12:54:15;3.73;;;1.50;;
37097;SDS011;63608;49.572;12.348;2023-12-20T12:56:29;2.40;;;1.93;;
37097;SDS011;63608;49.572;12.348;2023-12-20T12:58:38;4.93;;;1.93;;
37097;SDS011;63608;49.572;12.348;2023-12-20T13:00:44;6.30;;;2.60;;
37097;SDS011;63608;49.572;12.348;2023-12-20T13:03:00;2.00;;;1.80;;
37097;SDS011;63608;49.572;12.348;2023-12-20T13:05:14;6.80;;;1.60;;
37097;SDS011;63608;49.572;12.348;2023-12-20T13:07:25;3.40;;;1.20;;
37097;SDS011;63608;49.572;12.348;2023-12-20T13:09:41;2.40;;;2.20;;
37097;SDS011;63608;49.572;12.348;2023-12-20T13:11:53;2.23;;;1.70;;
37097;SDS011;63608;49.572;12.348;2023-12-20T13:14:05;1.20;;;1.10;;
37097;SDS011;63608;49.572;12.348;2023-12-20T13:16:21;2.10;;;1.80;;